Main page
METAR-TAF:

METAR-TAF

Airports :

Khartoum, Sudan

Khartoum International Airport

latitude: 15-36N, longitude: 032-33E, elevation: 382 m

Current weather observation

The report was made 26 minutes ago, at 05:00 UTC
Wind 15 kt from the North/Northwest
Temperature 21°C
Humidity 16%
Pressure 1016 hPa
Visibility 10 km or more
no clouds below 1500 m and no cumulonimbus

METAR: HSSS 260500Z 34015KT CAVOK 21/M06 Q1016 NOSIG

Time: 08:26 (05:26 UTC)

Forecast

The report was made 6 hours and 26 minutes ago, at 23:00 UTC
Forecast valid from 26 at 00 UTC to 27 at 06 UTC
Wind 12 kt from the North with gusts up to 22 kt
Visibility 10 km or more
no clouds below 1500 m and no cumulonimbus
Temporary
from 26 at 04 UTC to 26 at 12 UTC
Visibility: 5000 m
Probability 30%
from 26 at 06 UTC to 26 at 09 UTC
Visibility: 3000 m
Blowing dust

TAF: HSSS 252300Z 2600/2706 36012G22KT CAVOK TEMPO 2604/2612 5000 NSC PROB30 2606/2609 3000 BLDU

Weather observations and forecasts of more than 4000 airports (METAR and TAF reports).

The available stations are represented by yellow and red dots on the map.

Hover mouse over dot to see the name of the station.

Then click to see weather observations and forecasts.

To change the map : click on the green buttons with a black cross to zoom in, on the green button with a dash to zoom out, or on the green arrows for adjacent maps.


METAR-TAF: